sensor_id;sensor_type;location;lat;lon;timestamp;P1;durP1;ratioP1;P2;durP2;ratioP2
8230;SDS011;4156;50.908;6.974;2023-06-10T00:01:50;6.00;;;5.40;;
8230;SDS011;4156;50.908;6.974;2023-06-10T00:04:16;6.28;;;5.07;;
8230;SDS011;4156;50.908;6.974;2023-06-10T00:06:45;7.00;;;5.82;;
8230;SDS011;4156;50.908;6.974;2023-06-10T00:09:13;10.23;;;5.35;;
8230;SDS011;4156;50.908;6.974;2023-06-10T00:11:39;6.43;;;5.30;;
8230;SDS011;4156;50.908;6.974;2023-06-10T00:14:05;9.38;;;5.05;;
8230;SDS011;4156;50.908;6.974;2023-06-10T00:16:31;10.95;;;5.78;;
8230;SDS011;4156;50.908;6.974;2023-06-10T00:18:59;6.05;;;4.60;;
8230;SDS011;4156;50.908;6.974;2023-06-10T00:21:29;7.60;;;5.10;;
8230;SDS011;4156;50.908;6.974;2023-06-10T00:24:02;5.97;;;4.80;;
8230;SDS011;4156;50.908;6.974;2023-06-10T00:26:31;6.70;;;5.23;;
8230;SDS011;4156;50.908;6.974;2023-06-10T00:28:58;6.60;;;4.70;;
8230;SDS011;4156;50.908;6.974;2023-06-10T00:31:23;4.90;;;4.30;;
8230;SDS011;4156;50.908;6.974;2023-06-10T00:33:51;5.30;;;4.80;;
8230;SDS011;4156;50.908;6.974;2023-06-10T00:36:17;6.97;;;5.00;;
8230;SDS011;4156;50.908;6.974;2023-06-10T00:38:42;6.13;;;5.50;;
8230;SDS011;4156;50.908;6.974;2023-06-10T00:41:08;6.03;;;4.78;;
8230;SDS011;4156;50.908;6.974;2023-06-10T00:43:33;8.10;;;5.50;;
8230;SDS011;4156;50.908;6.974;2023-06-10T00:45:59;7.13;;;5.50;;
8230;SDS011;4156;50.908;6.974;2023-06-10T00:48:25;8.65;;;5.50;;
8230;SDS011;4156;50.908;6.974;2023-06-10T00:50:51;7.20;;;5.23;;
8230;SDS011;4156;50.908;6.974;2023-06-10T00:53:17;6.30;;;4.97;;
8230;SDS011;4156;50.908;6.974;2023-06-10T00:55:43;6.60;;;5.03;;
8230;SDS011;4156;50.908;6.974;2023-06-10T00:58:09;6.05;;;5.22;;
8230;SDS011;4156;50.908;6.974;2023-06-10T01:00:35;8.30;;;5.00;;
8230;SDS011;4156;50.908;6.974;2023-06-10T01:03:01;5.77;;;5.27;;
8230;SDS011;4156;50.908;6.974;2023-06-10T01:05:33;5.53;;;4.93;;
8230;SDS011;4156;50.908;6.974;2023-06-10T01:08:03;6.03;;;5.43;;
8230;SDS011;4156;50.908;6.974;2023-06-10T01:10:41;5.77;;;5.17;;
8230;SDS011;4156;50.908;6.974;2023-06-10T01:13:10;9.23;;;5.10;;
8230;SDS011;4156;50.908;6.974;2023-06-10T01:15:37;5.83;;;5.30;;
8230;SDS011;4156;50.908;6.974;2023-06-10T01:18:04;7.97;;;5.40;;
8230;SDS011;4156;50.908;6.974;2023-06-10T01:20:34;7.30;;;5.47;;
8230;SDS011;4156;50.908;6.974;2023-06-10T01:23:04;6.37;;;5.77;;
8230;SDS011;4156;50.908;6.974;2023-06-10T01:25:30;6.27;;;5.57;;
8230;SDS011;4156;50.908;6.974;2023-06-10T01:28:14;7.17;;;5.80;;
8230;SDS011;4156;50.908;6.974;2023-06-10T01:33:43;7.07;;;5.17;;
8230;SDS011;4156;50.908;6.974;2023-06-10T01:36:12;6.97;;;5.47;;
8230;SDS011;4156;50.908;6.974;2023-06-10T01:38:41;7.87;;;6.03;;
8230;SDS011;4156;50.908;6.974;2023-06-10T01:41:09;6.33;;;5.30;;
8230;SDS011;4156;50.908;6.974;2023-06-10T01:43:39;5.70;;;5.00;;
8230;SDS011;4156;50.908;6.974;2023-06-10T01:46:07;8.50;;;5.47;;
8230;SDS011;4156;50.908;6.974;2023-06-10T01:48:33;6.50;;;4.93;;
8230;SDS011;4156;50.908;6.974;2023-06-10T01:50:59;7.20;;;6.00;;
8230;SDS011;4156;50.908;6.974;2023-06-10T01:53:24;7.60;;;5.20;;
8230;SDS011;4156;50.908;6.974;2023-06-10T01:55:50;5.83;;;5.23;;
8230;SDS011;4156;50.908;6.974;2023-06-10T01:58:15;7.10;;;5.53;;
8230;SDS011;4156;50.908;6.974;2023-06-10T02:00:41;8.77;;;5.60;;
8230;SDS011;4156;50.908;6.974;2023-06-10T02:03:07;6.77;;;5.03;;
8230;SDS011;4156;50.908;6.974;2023-06-10T02:05:32;6.83;;;4.97;;
8230;SDS011;4156;50.908;6.974;2023-06-10T02:07:58;6.37;;;5.40;;
8230;SDS011;4156;50.908;6.974;2023-06-10T02:10:24;6.37;;;5.30;;
8230;SDS011;4156;50.908;6.974;2023-06-10T02:12:49;7.43;;;5.33;;
8230;SDS011;4156;50.908;6.974;2023-06-10T02:15:15;7.10;;;5.40;;
8230;SDS011;4156;50.908;6.974;2023-06-10T02:17:40;6.47;;;5.40;;
8230;SDS011;4156;50.908;6.974;2023-06-10T02:20:06;5.73;;;5.03;;
8230;SDS011;4156;50.908;6.974;2023-06-10T02:22:35;6.03;;;5.43;;
8230;SDS011;4156;50.908;6.974;2023-06-10T02:25:01;6.33;;;5.47;;
8230;SDS011;4156;50.908;6.974;2023-06-10T02:27:27;6.20;;;5.60;;
8230;SDS011;4156;50.908;6.974;2023-06-10T02:29:52;5.87;;;5.20;;
8230;SDS011;4156;50.908;6.974;2023-06-10T02:32:18;6.43;;;5.27;;
8230;SDS011;4156;50.908;6.974;2023-06-10T02:34:43;6.23;;;5.60;;
8230;SDS011;4156;50.908;6.974;2023-06-10T02:37:09;5.70;;;5.10;;
8230;SDS011;4156;50.908;6.974;2023-06-10T02:39:34;5.90;;;5.30;;
8230;SDS011;4156;50.908;6.974;2023-06-10T02:42:00;6.67;;;5.53;;
8230;SDS011;4156;50.908;6.974;2023-06-10T02:44:25;6.20;;;5.57;;
8230;SDS011;4156;50.908;6.974;2023-06-10T02:46:51;7.00;;;5.73;;
8230;SDS011;4156;50.908;6.974;2023-06-10T02:49:17;6.77;;;5.70;;
8230;SDS011;4156;50.908;6.974;2023-06-10T02:51:42;7.47;;;5.83;;
8230;SDS011;4156;50.908;6.974;2023-06-10T02:54:08;6.80;;;5.70;;
8230;SDS011;4156;50.908;6.974;2023-06-10T02:56:33;6.53;;;5.70;;
8230;SDS011;4156;50.908;6.974;2023-06-10T02:58:59;6.30;;;5.60;;
8230;SDS011;4156;50.908;6.974;2023-06-10T03:01:25;6.23;;;5.53;;
8230;SDS011;4156;50.908;6.974;2023-06-10T03:03:50;7.63;;;6.13;;
8230;SDS011;4156;50.908;6.974;2023-06-10T03:06:17;7.50;;;6.30;;
8230;SDS011;4156;50.908;6.974;2023-06-10T03:08:43;8.47;;;5.80;;
8230;SDS011;4156;50.908;6.974;2023-06-10T03:11:10;7.10;;;6.40;;
8230;SDS011;4156;50.908;6.974;2023-06-10T03:13:36;6.40;;;5.80;;
8230;SDS011;4156;50.908;6.974;2023-06-10T03:16:03;5.60;;;5.10;;
8230;SDS011;4156;50.908;6.974;2023-06-10T03:18:29;8.37;;;6.27;;
8230;SDS011;4156;50.908;6.974;2023-06-10T03:20:55;6.63;;;5.70;;
8230;SDS011;4156;50.908;6.974;2023-06-10T03:23:21;6.93;;;6.23;;
8230;SDS011;4156;50.908;6.974;2023-06-10T03:25:48;6.57;;;5.97;;
8230;SDS011;4156;50.908;6.974;2023-06-10T03:28:13;7.07;;;5.53;;
8230;SDS011;4156;50.908;6.974;2023-06-10T03:30:39;8.80;;;6.33;;
8230;SDS011;4156;50.908;6.974;2023-06-10T03:33:04;7.03;;;6.33;;
8230;SDS011;4156;50.908;6.974;2023-06-10T03:35:30;7.87;;;6.17;;
8230;SDS011;4156;50.908;6.974;2023-06-10T03:37:57;10.23;;;5.83;;
8230;SDS011;4156;50.908;6.974;2023-06-10T03:40:23;7.77;;;5.37;;
8230;SDS011;4156;50.908;6.974;2023-06-10T03:42:48;7.13;;;6.13;;
8230;SDS011;4156;50.908;6.974;2023-06-10T03:45:14;6.43;;;5.63;;
8230;SDS011;4156;50.908;6.974;2023-06-10T03:47:39;9.07;;;6.10;;
8230;SDS011;4156;50.908;6.974;2023-06-10T03:50:06;6.70;;;6.03;;
8230;SDS011;4156;50.908;6.974;2023-06-10T03:52:33;6.87;;;5.77;;
8230;SDS011;4156;50.908;6.974;2023-06-10T03:54:59;7.93;;;6.17;;
8230;SDS011;4156;50.908;6.974;2023-06-10T03:57:24;6.10;;;5.50;;
8230;SDS011;4156;50.908;6.974;2023-06-10T03:59:50;7.70;;;6.70;;
8230;SDS011;4156;50.908;6.974;2023-06-10T04:02:16;6.93;;;6.23;;
8230;SDS011;4156;50.908;6.974;2023-06-10T04:04:41;7.70;;;6.27;;
8230;SDS011;4156;50.908;6.974;2023-06-10T04:07:07;7.53;;;5.73;;
8230;SDS011;4156;50.908;6.974;2023-06-10T04:09:33;9.37;;;5.90;;
8230;SDS011;4156;50.908;6.974;2023-06-10T04:12:00;6.03;;;5.17;;
8230;SDS011;4156;50.908;6.974;2023-06-10T04:14:26;9.03;;;5.80;;
8230;SDS011;4156;50.908;6.974;2023-06-10T04:16:52;6.93;;;5.77;;
8230;SDS011;4156;50.908;6.974;2023-06-10T04:19:18;7.63;;;6.00;;
8230;SDS011;4156;50.908;6.974;2023-06-10T04:21:43;7.00;;;5.30;;
8230;SDS011;4156;50.908;6.974;2023-06-10T04:24:09;6.20;;;5.60;;
8230;SDS011;4156;50.908;6.974;2023-06-10T04:26:35;6.83;;;5.90;;
8230;SDS011;4156;50.908;6.974;2023-06-10T04:29:01;8.70;;;5.87;;
8230;SDS011;4156;50.908;6.974;2023-06-10T04:31:26;7.07;;;6.27;;
8230;SDS011;4156;50.908;6.974;2023-06-10T04:33:52;8.00;;;5.63;;
8230;SDS011;4156;50.908;6.974;2023-06-10T04:36:18;8.60;;;5.70;;
8230;SDS011;4156;50.908;6.974;2023-06-10T04:38:44;6.63;;;5.90;;
8230;SDS011;4156;50.908;6.974;2023-06-10T04:41:09;7.97;;;5.37;;
8230;SDS011;4156;50.908;6.974;2023-06-10T04:43:35;6.20;;;5.53;;
8230;SDS011;4156;50.908;6.974;2023-06-10T04:46:00;7.43;;;5.60;;
8230;SDS011;4156;50.908;6.974;2023-06-10T04:48:26;7.97;;;6.20;;
8230;SDS011;4156;50.908;6.974;2023-06-10T04:50:52;6.40;;;5.33;;
8230;SDS011;4156;50.908;6.974;2023-06-10T04:53:17;7.10;;;5.57;;
8230;SDS011;4156;50.908;6.974;2023-06-10T04:55:43;6.83;;;5.63;;
8230;SDS011;4156;50.908;6.974;2023-06-10T04:58:09;6.90;;;5.47;;
8230;SDS011;4156;50.908;6.974;2023-06-10T05:00:34;6.57;;;5.53;;
8230;SDS011;4156;50.908;6.974;2023-06-10T05:03:00;6.07;;;5.47;;
8230;SDS011;4156;50.908;6.974;2023-06-10T05:05:25;6.13;;;5.53;;
8230;SDS011;4156;50.908;6.974;2023-06-10T05:07:51;6.27;;;5.17;;
8230;SDS011;4156;50.908;6.974;2023-06-10T05:10:16;7.33;;;5.50;;
8230;SDS011;4156;50.908;6.974;2023-06-10T05:12:42;6.97;;;5.60;;
8230;SDS011;4156;50.908;6.974;2023-06-10T05:15:08;5.60;;;5.00;;
8230;SDS011;4156;50.908;6.974;2023-06-10T05:17:34;7.83;;;5.23;;
8230;SDS011;4156;50.908;6.974;2023-06-10T05:20:02;5.30;;;4.80;;
8230;SDS011;4156;50.908;6.974;2023-06-10T05:22:28;5.40;;;4.90;;
8230;SDS011;4156;50.908;6.974;2023-06-10T05:24:54;6.03;;;4.57;;
8230;SDS011;4156;50.908;6.974;2023-06-10T05:27:19;6.37;;;4.93;;
8230;SDS011;4156;50.908;6.974;2023-06-10T05:29:46;5.40;;;4.90;;
8230;SDS011;4156;50.908;6.974;2023-06-10T05:32:11;5.60;;;5.10;;
8230;SDS011;4156;50.908;6.974;2023-06-10T05:34:37;6.90;;;5.60;;
8230;SDS011;4156;50.908;6.974;2023-06-10T05:37:03;5.70;;;5.10;;
8230;SDS011;4156;50.908;6.974;2023-06-10T05:39:29;8.37;;;5.70;;
8230;SDS011;4156;50.908;6.974;2023-06-10T05:41:54;8.17;;;5.03;;
8230;SDS011;4156;50.908;6.974;2023-06-10T05:44:20;7.67;;;5.37;;
8230;SDS011;4156;50.908;6.974;2023-06-10T05:46:46;6.30;;;5.20;;
8230;SDS011;4156;50.908;6.974;2023-06-10T05:49:11;6.53;;;5.67;;
8230;SDS011;4156;50.908;6.974;2023-06-10T05:51:37;6.20;;;5.37;;
8230;SDS011;4156;50.908;6.974;2023-06-10T05:54:03;7.37;;;5.47;;
8230;SDS011;4156;50.908;6.974;2023-06-10T05:56:28;8.03;;;5.20;;
8230;SDS011;4156;50.908;6.974;2023-06-10T05:58:54;7.90;;;5.03;;
8230;SDS011;4156;50.908;6.974;2023-06-10T06:01:20;7.33;;;5.50;;
8230;SDS011;4156;50.908;6.974;2023-06-10T06:03:46;6.17;;;5.13;;
8230;SDS011;4156;50.908;6.974;2023-06-10T06:06:11;6.83;;;4.87;;
8230;SDS011;4156;50.908;6.974;2023-06-10T06:08:37;6.47;;;4.93;;
8230;SDS011;4156;50.908;6.974;2023-06-10T06:11:02;8.90;;;5.40;;
8230;SDS011;4156;50.908;6.974;2023-06-10T06:13:28;6.47;;;4.83;;
8230;SDS011;4156;50.908;6.974;2023-06-10T06:15:53;6.73;;;4.77;;
8230;SDS011;4156;50.908;6.974;2023-06-10T06:18:19;7.20;;;5.53;;
8230;SDS011;4156;50.908;6.974;2023-06-10T06:20:45;5.80;;;5.13;;
8230;SDS011;4156;50.908;6.974;2023-06-10T06:23:10;4.93;;;4.53;;
8230;SDS011;4156;50.908;6.974;2023-06-10T06:25:36;6.13;;;4.50;;
8230;SDS011;4156;50.908;6.974;2023-06-10T06:28:04;5.80;;;4.60;;
8230;SDS011;4156;50.908;6.974;2023-06-10T06:30:31;7.37;;;4.60;;
8230;SDS011;4156;50.908;6.974;2023-06-10T06:32:56;7.03;;;4.37;;
8230;SDS011;4156;50.908;6.974;2023-06-10T06:35:22;5.10;;;4.47;;
8230;SDS011;4156;50.908;6.974;2023-06-10T06:37:47;5.33;;;4.83;;
8230;SDS011;4156;50.908;6.974;2023-06-10T06:40:13;5.77;;;4.57;;
8230;SDS011;4156;50.908;6.974;2023-06-10T06:42:39;5.82;;;4.35;;
8230;SDS011;4156;50.908;6.974;2023-06-10T06:45:04;6.27;;;4.63;;
8230;SDS011;4156;50.908;6.974;2023-06-10T06:47:30;4.97;;;4.37;;
8230;SDS011;4156;50.908;6.974;2023-06-10T06:49:56;6.50;;;4.40;;
8230;SDS011;4156;50.908;6.974;2023-06-10T06:52:21;5.07;;;4.57;;
8230;SDS011;4156;50.908;6.974;2023-06-10T06:54:47;6.13;;;4.55;;
8230;SDS011;4156;50.908;6.974;2023-06-10T06:57:13;5.27;;;4.77;;
8230;SDS011;4156;50.908;6.974;2023-06-10T06:59:38;5.85;;;4.95;;
8230;SDS011;4156;50.908;6.974;2023-06-10T07:02:04;7.45;;;4.80;;
8230;SDS011;4156;50.908;6.974;2023-06-10T07:04:30;6.80;;;4.40;;
8230;SDS011;4156;50.908;6.974;2023-06-10T07:06:56;6.53;;;4.35;;
8230;SDS011;4156;50.908;6.974;2023-06-10T07:09:21;5.80;;;4.63;;
8230;SDS011;4156;50.908;6.974;2023-06-10T07:11:47;5.50;;;4.50;;
8230;SDS011;4156;50.908;6.974;2023-06-10T07:14:12;5.68;;;4.53;;
8230;SDS011;4156;50.908;6.974;2023-06-10T07:16:38;6.57;;;4.40;;
8230;SDS011;4156;50.908;6.974;2023-06-10T07:19:03;5.67;;;4.90;;
8230;SDS011;4156;50.908;6.974;2023-06-10T07:21:29;5.20;;;4.70;;
8230;SDS011;4156;50.908;6.974;2023-06-10T07:23:55;7.32;;;4.68;;
8230;SDS011;4156;50.908;6.974;2023-06-10T07:26:24;6.30;;;4.15;;
8230;SDS011;4156;50.908;6.974;2023-06-10T07:28:50;5.10;;;4.43;;
8230;SDS011;4156;50.908;6.974;2023-06-10T07:31:16;4.55;;;4.15;;
8230;SDS011;4156;50.908;6.974;2023-06-10T07:33:41;4.88;;;4.20;;
8230;SDS011;4156;50.908;6.974;2023-06-10T07:36:08;4.90;;;4.30;;
8230;SDS011;4156;50.908;6.974;2023-06-10T07:38:34;4.85;;;4.13;;
8230;SDS011;4156;50.908;6.974;2023-06-10T07:41:00;4.75;;;4.00;;
8230;SDS011;4156;50.908;6.974;2023-06-10T07:43:25;4.55;;;4.07;;
8230;SDS011;4156;50.908;6.974;2023-06-10T07:45:51;4.88;;;4.43;;
8230;SDS011;4156;50.908;6.974;2023-06-10T07:48:16;4.97;;;4.47;;
8230;SDS011;4156;50.908;6.974;2023-06-10T07:50:42;5.18;;;4.40;;
8230;SDS011;4156;50.908;6.974;2023-06-10T07:53:08;6.22;;;4.60;;
8230;SDS011;4156;50.908;6.974;2023-06-10T07:55:33;5.18;;;4.40;;
8230;SDS011;4156;50.908;6.974;2023-06-10T07:57:59;5.05;;;4.25;;
8230;SDS011;4156;50.908;6.974;2023-06-10T08:00:24;6.07;;;4.45;;
8230;SDS011;4156;50.908;6.974;2023-06-10T08:02:50;6.30;;;4.88;;
8230;SDS011;4156;50.908;6.974;2023-06-10T08:05:15;4.70;;;4.30;;
8230;SDS011;4156;50.908;6.974;2023-06-10T08:07:41;4.95;;;3.95;;
8230;SDS011;4156;50.908;6.974;2023-06-10T08:10:07;4.40;;;3.90;;
8230;SDS011;4156;50.908;6.974;2023-06-10T08:12:33;5.15;;;3.90;;
8230;SDS011;4156;50.908;6.974;2023-06-10T08:14:59;4.65;;;4.22;;
8230;SDS011;4156;50.908;6.974;2023-06-10T08:17:25;4.93;;;4.40;;
8230;SDS011;4156;50.908;6.974;2023-06-10T08:19:51;5.40;;;4.60;;
8230;SDS011;4156;50.908;6.974;2023-06-10T08:22:16;5.53;;;4.57;;
8230;SDS011;4156;50.908;6.974;2023-06-10T08:24:42;4.50;;;4.10;;
8230;SDS011;4156;50.908;6.974;2023-06-10T08:27:08;6.38;;;4.30;;
8230;SDS011;4156;50.908;6.974;2023-06-10T08:29:33;6.65;;;4.80;;
8230;SDS011;4156;50.908;6.974;2023-06-10T08:31:59;7.13;;;4.72;;
8230;SDS011;4156;50.908;6.974;2023-06-10T08:34:25;5.90;;;4.40;;
8230;SDS011;4156;50.908;6.974;2023-06-10T08:36:51;5.30;;;4.28;;
8230;SDS011;4156;50.908;6.974;2023-06-10T08:39:18;6.80;;;4.82;;
8230;SDS011;4156;50.908;6.974;2023-06-10T08:41:46;5.30;;;4.80;;
8230;SDS011;4156;50.908;6.974;2023-06-10T08:44:24;11.18;;;4.25;;
8230;SDS011;4156;50.908;6.974;2023-06-10T08:46:53;4.95;;;4.45;;
8230;SDS011;4156;50.908;6.974;2023-06-10T08:49:23;5.93;;;4.40;;
8230;SDS011;4156;50.908;6.974;2023-06-10T08:51:52;5.05;;;4.07;;
8230;SDS011;4156;50.908;6.974;2023-06-10T08:54:24;5.88;;;3.97;;
8230;SDS011;4156;50.908;6.974;2023-06-10T08:56:54;5.53;;;4.55;;
8230;SDS011;4156;50.908;6.974;2023-06-10T08:59:21;6.05;;;4.45;;
8230;SDS011;4156;50.908;6.974;2023-06-10T09:01:48;5.72;;;4.30;;
8230;SDS011;4156;50.908;6.974;2023-06-10T09:04:15;6.25;;;4.70;;
8230;SDS011;4156;50.908;6.974;2023-06-10T09:06:42;5.88;;;4.32;;
8230;SDS011;4156;50.908;6.974;2023-06-10T09:09:09;4.40;;;4.00;;
8230;SDS011;4156;50.908;6.974;2023-06-10T09:11:34;6.00;;;4.85;;
8230;SDS011;4156;50.908;6.974;2023-06-10T09:14:00;5.72;;;4.63;;
8230;SDS011;4156;50.908;6.974;2023-06-10T09:16:26;5.78;;;4.38;;
8230;SDS011;4156;50.908;6.974;2023-06-10T09:18:51;4.80;;;4.30;;
8230;SDS011;4156;50.908;6.974;2023-06-10T09:21:23;5.55;;;4.43;;
8230;SDS011;4156;50.908;6.974;2023-06-10T09:23:50;5.88;;;4.68;;
8230;SDS011;4156;50.908;6.974;2023-06-10T09:26:16;5.32;;;4.80;;
8230;SDS011;4156;50.908;6.974;2023-06-10T09:28:44;5.72;;;4.10;;
8230;SDS011;4156;50.908;6.974;2023-06-10T09:31:13;5.22;;;4.30;;
8230;SDS011;4156;50.908;6.974;2023-06-10T09:33:39;7.18;;;4.97;;
8230;SDS011;4156;50.908;6.974;2023-06-10T09:36:05;7.03;;;4.70;;
8230;SDS011;4156;50.908;6.974;2023-06-10T09:38:31;6.75;;;4.72;;
8230;SDS011;4156;50.908;6.974;2023-06-10T09:40:58;5.97;;;4.65;;
8230;SDS011;4156;50.908;6.974;2023-06-10T09:43:42;5.15;;;4.20;;
8230;SDS011;4156;50.908;6.974;2023-06-10T09:46:18;9.63;;;4.60;;
8230;SDS011;4156;50.908;6.974;2023-06-10T09:48:45;4.93;;;4.43;;
8230;SDS011;4156;50.908;6.974;2023-06-10T09:51:12;6.65;;;4.40;;
8230;SDS011;4156;50.908;6.974;2023-06-10T09:53:39;6.28;;;4.18;;
8230;SDS011;4156;50.908;6.974;2023-06-10T09:56:04;5.95;;;4.55;;
8230;SDS011;4156;50.908;6.974;2023-06-10T09:58:38;5.38;;;4.78;;
8230;SDS011;4156;50.908;6.974;2023-06-10T10:01:10;5.55;;;4.57;;
8230;SDS011;4156;50.908;6.974;2023-06-10T10:04:10;6.13;;;4.40;;
8230;SDS011;4156;50.908;6.974;2023-06-10T10:06:29;4.75;;;4.10;;
8230;SDS011;4156;50.908;6.974;2023-06-10T10:08:56;4.82;;;4.30;;
8230;SDS011;4156;50.908;6.974;2023-06-10T10:11:21;7.47;;;4.47;;
8230;SDS011;4156;50.908;6.974;2023-06-10T10:13:48;5.28;;;4.05;;
8230;SDS011;4156;50.908;6.974;2023-06-10T10:16:23;5.28;;;4.78;;
8230;SDS011;4156;50.908;6.974;2023-06-10T10:19:13;5.38;;;4.50;;
8230;SDS011;4156;50.908;6.974;2023-06-10T10:21:52;4.90;;;4.40;;
8230;SDS011;4156;50.908;6.974;2023-06-10T10:24:21;6.28;;;4.57;;
8230;SDS011;4156;50.908;6.974;2023-06-10T10:26:48;4.80;;;4.35;;
8230;SDS011;4156;50.908;6.974;2023-06-10T10:29:33;4.93;;;4.25;;
8230;SDS011;4156;50.908;6.974;2023-06-10T10:32:03;7.38;;;4.60;;
8230;SDS011;4156;50.908;6.974;2023-06-10T10:34:34;6.32;;;4.75;;
8230;SDS011;4156;50.908;6.974;2023-06-10T10:37:05;7.93;;;4.90;;
8230;SDS011;4156;50.908;6.974;2023-06-10T10:39:32;5.97;;;4.60;;
8230;SDS011;4156;50.908;6.974;2023-06-10T10:41:59;5.65;;;4.63;;
8230;SDS011;4156;50.908;6.974;2023-06-10T10:44:25;7.22;;;4.63;;
8230;SDS011;4156;50.908;6.974;2023-06-10T10:46:52;6.00;;;4.70;;
8230;SDS011;4156;50.908;6.974;2023-06-10T10:49:19;5.05;;;4.47;;
8230;SDS011;4156;50.908;6.974;2023-06-10T10:51:58;6.15;;;4.75;;
8230;SDS011;4156;50.908;6.974;2023-06-10T10:54:45;5.50;;;4.30;;
8230;SDS011;4156;50.908;6.974;2023-06-10T10:59:44;5.10;;;4.50;;
8230;SDS011;4156;50.908;6.974;2023-06-10T11:02:15;5.00;;;4.50;;
8230;SDS011;4156;50.908;6.974;2023-06-10T11:04:46;5.65;;;5.05;;
8230;SDS011;4156;50.908;6.974;2023-06-10T11:07:12;6.07;;;4.47;;
8230;SDS011;4156;50.908;6.974;2023-06-10T11:09:46;5.70;;;4.60;;
8230;SDS011;4156;50.908;6.974;2023-06-10T11:12:40;5.20;;;4.13;;
8230;SDS011;4156;50.908;6.974;2023-06-10T11:15:07;4.47;;;4.07;;
8230;SDS011;4156;50.908;6.974;2023-06-10T11:17:32;6.68;;;4.28;;
8230;SDS011;4156;50.908;6.974;2023-06-10T11:19:58;5.05;;;4.05;;
8230;SDS011;4156;50.908;6.974;2023-06-10T11:22:24;5.65;;;4.30;;
8230;SDS011;4156;50.908;6.974;2023-06-10T11:24:50;5.47;;;4.35;;
8230;SDS011;4156;50.908;6.974;2023-06-10T11:27:19;5.60;;;4.63;;
8230;SDS011;4156;50.908;6.974;2023-06-10T11:29:56;5.88;;;4.50;;
8230;SDS011;4156;50.908;6.974;2023-06-10T11:32:33;5.00;;;4.38;;
8230;SDS011;4156;50.908;6.974;2023-06-10T11:34:59;5.03;;;4.35;;
8230;SDS011;4156;50.908;6.974;2023-06-10T11:37:28;4.28;;;3.88;;
8230;SDS011;4156;50.908;6.974;2023-06-10T11:39:54;5.43;;;3.90;;
8230;SDS011;4156;50.908;6.974;2023-06-10T11:42:21;4.70;;;4.22;;
8230;SDS011;4156;50.908;6.974;2023-06-10T11:44:50;5.53;;;4.40;;
8230;SDS011;4156;50.908;6.974;2023-06-10T11:47:17;4.20;;;3.80;;
8230;SDS011;4156;50.908;6.974;2023-06-10T11:49:43;5.43;;;3.90;;
8230;SDS011;4156;50.908;6.974;2023-06-10T11:52:10;4.78;;;4.28;;
8230;SDS011;4156;50.908;6.974;2023-06-10T11:54:37;4.53;;;4.00;;
8230;SDS011;4156;50.908;6.974;2023-06-10T11:57:03;6.32;;;3.97;;
8230;SDS011;4156;50.908;6.974;2023-06-10T11:59:29;5.22;;;4.18;;
8230;SDS011;4156;50.908;6.974;2023-06-10T12:01:55;5.85;;;3.85;;
8230;SDS011;4156;50.908;6.974;2023-06-10T12:04:21;5.90;;;4.20;;
8230;SDS011;4156;50.908;6.974;2023-06-10T12:06:48;5.20;;;3.83;;
8230;SDS011;4156;50.908;6.974;2023-06-10T12:09:23;6.20;;;3.80;;
8230;SDS011;4156;50.908;6.974;2023-06-10T12:12:00;4.90;;;4.38;;
8230;SDS011;4156;50.908;6.974;2023-06-10T12:17:43;4.38;;;3.97;;
8230;SDS011;4156;50.908;6.974;2023-06-10T12:20:09;5.53;;;3.95;;
8230;SDS011;4156;50.908;6.974;2023-06-10T12:22:49;4.70;;;3.90;;
8230;SDS011;4156;50.908;6.974;2023-06-10T12:25:15;5.78;;;4.63;;
8230;SDS011;4156;50.908;6.974;2023-06-10T12:27:40;6.63;;;4.57;;
8230;SDS011;4156;50.908;6.974;2023-06-10T12:30:19;7.95;;;4.40;;
8230;SDS011;4156;50.908;6.974;2023-06-10T12:32:46;4.30;;;3.90;;
8230;SDS011;4156;50.908;6.974;2023-06-10T12:35:17;5.32;;;4.47;;
8230;SDS011;4156;50.908;6.974;2023-06-10T12:38:00;6.07;;;4.20;;
8230;SDS011;4156;50.908;6.974;2023-06-10T12:40:28;7.68;;;4.30;;
8230;SDS011;4156;50.908;6.974;2023-06-10T12:42:56;6.05;;;4.00;;
8230;SDS011;4156;50.908;6.974;2023-06-10T12:45:32;5.57;;;3.95;;
8230;SDS011;4156;50.908;6.974;2023-06-10T12:48:09;5.13;;;3.67;;
8230;SDS011;4156;50.908;6.974;2023-06-10T12:50:50;5.10;;;3.80;;
8230;SDS011;4156;50.908;6.974;2023-06-10T12:53:17;4.57;;;4.05;;
8230;SDS011;4156;50.908;6.974;2023-06-10T12:55:43;4.30;;;3.78;;
8230;SDS011;4156;50.908;6.974;2023-06-10T12:58:10;4.65;;;4.00;;
8230;SDS011;4156;50.908;6.974;2023-06-10T13:00:36;4.88;;;3.95;;
8230;SDS011;4156;50.908;6.974;2023-06-10T13:03:02;6.45;;;3.78;;
8230;SDS011;4156;50.908;6.974;2023-06-10T13:05:30;4.28;;;3.88;;
8230;SDS011;4156;50.908;6.974;2023-06-10T13:07:57;7.70;;;4.13;;
8230;SDS011;4156;50.908;6.974;2023-06-10T13:10:23;4.32;;;3.75;;
8230;SDS011;4156;50.908;6.974;2023-06-10T13:12:49;4.55;;;3.80;;
8230;SDS011;4156;50.908;6.974;2023-06-10T13:15:15;3.92;;;3.40;;
8230;SDS011;4156;50.908;6.974;2023-06-10T13:17:42;5.45;;;3.97;;
8230;SDS011;4156;50.908;6.974;2023-06-10T13:20:09;5.22;;;3.80;;
8230;SDS011;4156;50.908;6.974;2023-06-10T13:22:34;6.65;;;3.78;;
8230;SDS011;4156;50.908;6.974;2023-06-10T13:25:04;4.55;;;3.30;;
8230;SDS011;4156;50.908;6.974;2023-06-10T13:27:32;4.78;;;4.05;;
8230;SDS011;4156;50.908;6.974;2023-06-10T13:29:58;7.50;;;4.05;;
8230;SDS011;4156;50.908;6.974;2023-06-10T13:32:24;5.90;;;4.03;;
8230;SDS011;4156;50.908;6.974;2023-06-10T13:34:50;6.82;;;4.00;;
8230;SDS011;4156;50.908;6.974;2023-06-10T13:37:15;4.88;;;3.97;;
8230;SDS011;4156;50.908;6.974;2023-06-10T13:39:44;4.68;;;3.70;;
8230;SDS011;4156;50.908;6.974;2023-06-10T13:42:13;4.18;;;3.75;;
8230;SDS011;4156;50.908;6.974;2023-06-10T13:44:39;5.45;;;3.53;;
8230;SDS011;4156;50.908;6.974;2023-06-10T13:47:05;4.75;;;4.10;;
8230;SDS011;4156;50.908;6.974;2023-06-10T13:49:31;5.38;;;3.53;;
8230;SDS011;4156;50.908;6.974;2023-06-10T13:51:57;8.52;;;4.60;;
8230;SDS011;4156;50.908;6.974;2023-06-10T13:54:22;4.88;;;3.72;;
8230;SDS011;4156;50.908;6.974;2023-06-10T13:56:48;6.20;;;3.50;;
8230;SDS011;4156;50.908;6.974;2023-06-10T13:59:14;4.35;;;3.90;;
8230;SDS011;4156;50.908;6.974;2023-06-10T14:01:39;6.88;;;3.70;;
8230;SDS011;4156;50.908;6.974;2023-06-10T14:04:08;5.80;;;3.55;;
8230;SDS011;4156;50.908;6.974;2023-06-10T14:06:33;5.40;;;3.75;;
8230;SDS011;4156;50.908;6.974;2023-06-10T14:08:59;3.90;;;3.55;;
8230;SDS011;4156;50.908;6.974;2023-06-10T14:11:25;4.30;;;3.90;;
8230;SDS011;4156;50.908;6.974;2023-06-10T14:13:50;4.57;;;3.95;;
8230;SDS011;4156;50.908;6.974;2023-06-10T14:16:16;4.32;;;3.70;;
8230;SDS011;4156;50.908;6.974;2023-06-10T14:18:42;4.65;;;3.67;;
8230;SDS011;4156;50.908;6.974;2023-06-10T14:21:07;4.30;;;3.90;;
8230;SDS011;4156;50.908;6.974;2023-06-10T14:23:33;6.93;;;4.03;;
8230;SDS011;4156;50.908;6.974;2023-06-10T14:25:58;5.63;;;4.03;;
8230;SDS011;4156;50.908;6.974;2023-06-10T14:28:24;6.80;;;4.20;;
8230;SDS011;4156;50.908;6.974;2023-06-10T14:30:51;5.93;;;3.75;;
8230;SDS011;4156;50.908;6.974;2023-06-10T14:33:17;3.90;;;3.50;;
8230;SDS011;4156;50.908;6.974;2023-06-10T14:35:43;4.15;;;3.60;;
8230;SDS011;4156;50.908;6.974;2023-06-10T14:38:08;5.25;;;3.92;;
8230;SDS011;4156;50.908;6.974;2023-06-10T14:40:34;8.57;;;4.25;;
8230;SDS011;4156;50.908;6.974;2023-06-10T14:43:00;4.35;;;3.92;;
8230;SDS011;4156;50.908;6.974;2023-06-10T14:45:27;4.57;;;3.47;;
8230;SDS011;4156;50.908;6.974;2023-06-10T14:47:52;6.68;;;4.28;;
8230;SDS011;4156;50.908;6.974;2023-06-10T14:50:18;4.53;;;3.85;;
8230;SDS011;4156;50.908;6.974;2023-06-10T14:52:43;9.60;;;3.95;;
8230;SDS011;4156;50.908;6.974;2023-06-10T14:55:09;4.20;;;3.80;;
8230;SDS011;4156;50.908;6.974;2023-06-10T14:57:34;4.88;;;3.58;;
8230;SDS011;4156;50.908;6.974;2023-06-10T15:00:00;5.28;;;3.90;;
8230;SDS011;4156;50.908;6.974;2023-06-10T15:02:25;4.65;;;3.92;;
8230;SDS011;4156;50.908;6.974;2023-06-10T15:04:51;4.72;;;3.80;;
8230;SDS011;4156;50.908;6.974;2023-06-10T15:07:17;5.72;;;3.97;;
8230;SDS011;4156;50.908;6.974;2023-06-10T15:09:43;4.07;;;3.67;;
8230;SDS011;4156;50.908;6.974;2023-06-10T15:12:08;4.25;;;3.63;;
8230;SDS011;4156;50.908;6.974;2023-06-10T15:14:35;4.15;;;3.50;;
8230;SDS011;4156;50.908;6.974;2023-06-10T15:17:01;4.38;;;3.67;;
8230;SDS011;4156;50.908;6.974;2023-06-10T15:19:27;4.45;;;3.30;;
8230;SDS011;4156;50.908;6.974;2023-06-10T15:21:52;4.15;;;3.13;;
8230;SDS011;4156;50.908;6.974;2023-06-10T15:24:18;3.78;;;3.47;;